KDTL/DTL METAR and TAF weather

Enter ICAO airport designator
Station Type Date Time Source
KDTL METAR 2022/07/01 00:55 UTC NOAA

KDTL 010055Z AUTO 32010G16KT 10SM FEW055 FEW065 FEW070 22/11 A2992 RMK AO2


Station Type Date Time Source
KDTL Decoded METAR 2022/07/01 00:55 UTC NOAA

Detroit Lakes, Detroit Lakes Airport-Wething Field, MN, United States (KDTL) 46-50N 095-53W
Jun 30, 2022 - 08:55 PM EDT / 2022.07.01 0055 UTC
Wind: from the NW (320 degrees) at 12 MPH (10 KT) gusting to 18 MPH (16 KT):0
Visibility: 10 mile(s):0
Sky conditions: mostly clear
Temperature: 71 F (22 C)
Dew Point: 51 F (11 C)
Relative Humidity: 49%
Pressure (altimeter): 29.92 in. Hg (1013 hPa)
ob: KDTL 010055Z AUTO 32010G16KT 10SM FEW055 FEW065 FEW070 22/11 A2992 RMK AO2
cycle: 1

Station Type Date Time Source
KDTL TAF UTC NOAA

Error!

Example: see airport list